sensor_id;sensor_type;location;lat;lon;timestamp;temperature;humidity
578;DHT22;275;48.492;9.214;2024-01-30T00:00:38;9.40;24.30
578;DHT22;275;48.492;9.214;2024-01-30T00:03:05;9.30;24.40
578;DHT22;275;48.492;9.214;2024-01-30T00:05:31;9.40;24.50
578;DHT22;275;48.492;9.214;2024-01-30T00:07:58;9.00;24.40
578;DHT22;275;48.492;9.214;2024-01-30T00:10:25;8.70;25.30
578;DHT22;275;48.492;9.214;2024-01-30T00:12:52;8.60;25.40
578;DHT22;275;48.492;9.214;2024-01-30T00:15:19;8.60;25.60
578;DHT22;275;48.492;9.214;2024-01-30T00:17:47;8.60;25.60
578;DHT22;275;48.492;9.214;2024-01-30T00:20:14;8.40;26.00
578;DHT22;275;48.492;9.214;2024-01-30T00:22:41;8.40;26.00
578;DHT22;275;48.492;9.214;2024-01-30T00:25:08;8.30;25.90
578;DHT22;275;48.492;9.214;2024-01-30T00:27:35;8.30;25.70
578;DHT22;275;48.492;9.214;2024-01-30T00:30:02;8.30;25.50
578;DHT22;275;48.492;9.214;2024-01-30T00:32:29;8.40;25.30
578;DHT22;275;48.492;9.214;2024-01-30T00:34:57;8.50;25.10
578;DHT22;275;48.492;9.214;2024-01-30T00:37:24;8.40;25.00
578;DHT22;275;48.492;9.214;2024-01-30T00:39:51;8.40;25.10
578;DHT22;275;48.492;9.214;2024-01-30T00:42:17;8.30;25.20
578;DHT22;275;48.492;9.214;2024-01-30T00:44:45;8.00;25.90
578;DHT22;275;48.492;9.214;2024-01-30T00:47:11;8.00;26.30
578;DHT22;275;48.492;9.214;2024-01-30T00:49:38;8.00;26.40
578;DHT22;275;48.492;9.214;2024-01-30T00:52:06;8.00;26.50
578;DHT22;275;48.492;9.214;2024-01-30T00:54:33;8.00;26.40
578;DHT22;275;48.492;9.214;2024-01-30T00:57:00;8.00;26.40
578;DHT22;275;48.492;9.214;2024-01-30T00:59:27;8.20;25.80
578;DHT22;275;48.492;9.214;2024-01-30T01:01:54;7.70;26.20
578;DHT22;275;48.492;9.214;2024-01-30T01:04:20;7.40;26.60
578;DHT22;275;48.492;9.214;2024-01-30T01:06:47;7.10;27.10
578;DHT22;275;48.492;9.214;2024-01-30T01:09:16;7.40;26.80
578;DHT22;275;48.492;9.214;2024-01-30T01:11:43;7.80;25.90
578;DHT22;275;48.492;9.214;2024-01-30T01:14:09;7.70;26.00
578;DHT22;275;48.492;9.214;2024-01-30T01:16:36;7.50;26.50
578;DHT22;275;48.492;9.214;2024-01-30T01:19:03;7.40;26.70
578;DHT22;275;48.492;9.214;2024-01-30T01:21:30;7.50;26.70
578;DHT22;275;48.492;9.214;2024-01-30T01:23:56;7.60;26.60
578;DHT22;275;48.492;9.214;2024-01-30T01:26:24;7.70;26.70
578;DHT22;275;48.492;9.214;2024-01-30T01:28:51;7.10;27.00
578;DHT22;275;48.492;9.214;2024-01-30T01:31:18;6.80;27.80
578;DHT22;275;48.492;9.214;2024-01-30T01:33:48;6.60;28.10
578;DHT22;275;48.492;9.214;2024-01-30T01:36:15;6.40;28.70
578;DHT22;275;48.492;9.214;2024-01-30T01:38:41;6.60;28.30
578;DHT22;275;48.492;9.214;2024-01-30T01:41:08;7.10;27.40
578;DHT22;275;48.492;9.214;2024-01-30T01:43:36;6.90;27.40
578;DHT22;275;48.492;9.214;2024-01-30T01:46:04;6.70;28.20
578;DHT22;275;48.492;9.214;2024-01-30T01:48:31;6.90;27.70
578;DHT22;275;48.492;9.214;2024-01-30T01:50:59;7.10;27.40
578;DHT22;275;48.492;9.214;2024-01-30T01:53:26;7.20;27.00
578;DHT22;275;48.492;9.214;2024-01-30T01:55:54;7.30;26.80
578;DHT22;275;48.492;9.214;2024-01-30T01:58:21;7.70;26.00
578;DHT22;275;48.492;9.214;2024-01-30T02:00:50;7.90;25.40
578;DHT22;275;48.492;9.214;2024-01-30T02:03:18;7.60;25.80
578;DHT22;275;48.492;9.214;2024-01-30T02:05:47;7.30;26.60
578;DHT22;275;48.492;9.214;2024-01-30T02:08:14;7.30;26.70
578;DHT22;275;48.492;9.214;2024-01-30T02:10:40;7.20;26.80
578;DHT22;275;48.492;9.214;2024-01-30T02:13:07;7.10;26.80
578;DHT22;275;48.492;9.214;2024-01-30T02:15:34;7.30;26.50
578;DHT22;275;48.492;9.214;2024-01-30T02:18:02;7.60;26.00
578;DHT22;275;48.492;9.214;2024-01-30T02:20:30;7.70;25.60
578;DHT22;275;48.492;9.214;2024-01-30T02:22:59;8.00;25.10
578;DHT22;275;48.492;9.214;2024-01-30T02:25:31;8.10;24.80
578;DHT22;275;48.492;9.214;2024-01-30T02:27:58;8.00;24.90
578;DHT22;275;48.492;9.214;2024-01-30T02:30:25;7.90;25.20
578;DHT22;275;48.492;9.214;2024-01-30T02:32:51;7.90;24.90
578;DHT22;275;48.492;9.214;2024-01-30T02:35:18;8.00;24.90
578;DHT22;275;48.492;9.214;2024-01-30T02:37:45;7.90;25.00
578;DHT22;275;48.492;9.214;2024-01-30T02:40:13;7.80;25.00
578;DHT22;275;48.492;9.214;2024-01-30T02:42:40;7.70;25.40
578;DHT22;275;48.492;9.214;2024-01-30T02:45:09;7.80;25.20
578;DHT22;275;48.492;9.214;2024-01-30T02:47:36;8.00;24.80
578;DHT22;275;48.492;9.214;2024-01-30T02:50:03;8.00;24.60
578;DHT22;275;48.492;9.214;2024-01-30T02:52:30;8.10;24.50
578;DHT22;275;48.492;9.214;2024-01-30T02:54:57;7.90;24.70
578;DHT22;275;48.492;9.214;2024-01-30T02:57:25;7.60;25.30
578;DHT22;275;48.492;9.214;2024-01-30T02:59:52;7.50;25.50
578;DHT22;275;48.492;9.214;2024-01-30T03:02:19;7.50;25.60
578;DHT22;275;48.492;9.214;2024-01-30T03:04:45;7.40;25.50
578;DHT22;275;48.492;9.214;2024-01-30T03:07:12;7.50;25.60
578;DHT22;275;48.492;9.214;2024-01-30T03:09:41;7.30;25.90
578;DHT22;275;48.492;9.214;2024-01-30T03:12:08;7.30;26.10
578;DHT22;275;48.492;9.214;2024-01-30T03:14:36;7.10;26.60
578;DHT22;275;48.492;9.214;2024-01-30T03:17:03;7.00;26.70
578;DHT22;275;48.492;9.214;2024-01-30T03:19:30;7.00;26.80
578;DHT22;275;48.492;9.214;2024-01-30T03:21:57;7.10;26.80
578;DHT22;275;48.492;9.214;2024-01-30T03:24:23;7.20;26.80
578;DHT22;275;48.492;9.214;2024-01-30T03:26:50;7.10;26.80
578;DHT22;275;48.492;9.214;2024-01-30T03:29:17;7.20;26.60
578;DHT22;275;48.492;9.214;2024-01-30T03:31:45;7.20;26.60
578;DHT22;275;48.492;9.214;2024-01-30T03:34:12;7.20;26.70
578;DHT22;275;48.492;9.214;2024-01-30T03:36:39;7.30;26.80
578;DHT22;275;48.492;9.214;2024-01-30T03:39:06;7.10;26.80
578;DHT22;275;48.492;9.214;2024-01-30T03:41:33;7.30;26.60
578;DHT22;275;48.492;9.214;2024-01-30T03:43:59;7.10;26.80
578;DHT22;275;48.492;9.214;2024-01-30T03:46:26;7.20;26.90
578;DHT22;275;48.492;9.214;2024-01-30T03:48:54;7.10;26.80
578;DHT22;275;48.492;9.214;2024-01-30T03:51:21;7.00;27.00
578;DHT22;275;48.492;9.214;2024-01-30T03:53:48;7.00;26.90
578;DHT22;275;48.492;9.214;2024-01-30T03:56:15;7.00;26.90
578;DHT22;275;48.492;9.214;2024-01-30T03:58:41;6.90;27.00
578;DHT22;275;48.492;9.214;2024-01-30T04:01:13;7.00;26.70
578;DHT22;275;48.492;9.214;2024-01-30T04:03:40;6.90;27.00
578;DHT22;275;48.492;9.214;2024-01-30T04:06:08;6.90;26.80
578;DHT22;275;48.492;9.214;2024-01-30T04:08:35;6.90;27.00
578;DHT22;275;48.492;9.214;2024-01-30T04:11:04;6.90;26.90
578;DHT22;275;48.492;9.214;2024-01-30T04:13:31;6.80;27.00
578;DHT22;275;48.492;9.214;2024-01-30T04:15:59;6.70;27.30
578;DHT22;275;48.492;9.214;2024-01-30T04:18:25;6.70;27.30
578;DHT22;275;48.492;9.214;2024-01-30T04:20:52;6.60;27.60
578;DHT22;275;48.492;9.214;2024-01-30T04:23:20;6.50;27.70
578;DHT22;275;48.492;9.214;2024-01-30T04:25:47;6.60;27.70
578;DHT22;275;48.492;9.214;2024-01-30T04:28:14;6.80;27.10
578;DHT22;275;48.492;9.214;2024-01-30T04:30:41;6.90;27.00
578;DHT22;275;48.492;9.214;2024-01-30T04:33:08;6.70;27.20
578;DHT22;275;48.492;9.214;2024-01-30T04:35:34;6.40;28.10
578;DHT22;275;48.492;9.214;2024-01-30T04:38:02;6.40;28.10
578;DHT22;275;48.492;9.214;2024-01-30T04:40:30;6.60;27.90
578;DHT22;275;48.492;9.214;2024-01-30T04:42:57;6.60;28.00
578;DHT22;275;48.492;9.214;2024-01-30T04:45:24;6.60;28.00
578;DHT22;275;48.492;9.214;2024-01-30T04:47:51;6.60;28.00
578;DHT22;275;48.492;9.214;2024-01-30T04:50:17;6.60;28.20
578;DHT22;275;48.492;9.214;2024-01-30T04:52:44;6.80;27.80
578;DHT22;275;48.492;9.214;2024-01-30T04:55:11;6.70;28.00
578;DHT22;275;48.492;9.214;2024-01-30T04:57:40;6.60;28.00
578;DHT22;275;48.492;9.214;2024-01-30T05:00:08;6.20;29.10
578;DHT22;275;48.492;9.214;2024-01-30T05:02:35;6.00;29.10
578;DHT22;275;48.492;9.214;2024-01-30T05:05:01;5.90;29.10
578;DHT22;275;48.492;9.214;2024-01-30T05:07:28;6.00;28.30
578;DHT22;275;48.492;9.214;2024-01-30T05:09:55;6.00;28.10
578;DHT22;275;48.492;9.214;2024-01-30T05:12:22;6.00;28.00
578;DHT22;275;48.492;9.214;2024-01-30T05:14:50;6.20;27.20
578;DHT22;275;48.492;9.214;2024-01-30T05:17:17;5.80;28.30
578;DHT22;275;48.492;9.214;2024-01-30T05:19:44;5.60;28.70
578;DHT22;275;48.492;9.214;2024-01-30T05:22:10;5.70;28.30
578;DHT22;275;48.492;9.214;2024-01-30T05:24:41;6.10;27.70
578;DHT22;275;48.492;9.214;2024-01-30T05:27:07;6.40;26.90
578;DHT22;275;48.492;9.214;2024-01-30T05:29:34;6.60;26.60
578;DHT22;275;48.492;9.214;2024-01-30T05:32:03;6.50;26.60
578;DHT22;275;48.492;9.214;2024-01-30T05:34:30;6.50;26.90
578;DHT22;275;48.492;9.214;2024-01-30T05:36:57;6.60;26.60
578;DHT22;275;48.492;9.214;2024-01-30T05:39:24;6.70;26.60
578;DHT22;275;48.492;9.214;2024-01-30T05:41:51;6.60;27.00
578;DHT22;275;48.492;9.214;2024-01-30T05:44:17;6.50;26.90
578;DHT22;275;48.492;9.214;2024-01-30T05:46:44;6.50;27.20
578;DHT22;275;48.492;9.214;2024-01-30T05:49:12;6.40;27.20
578;DHT22;275;48.492;9.214;2024-01-30T05:51:39;6.40;27.30
578;DHT22;275;48.492;9.214;2024-01-30T05:54:06;6.40;27.30
578;DHT22;275;48.492;9.214;2024-01-30T05:56:33;6.70;26.70
578;DHT22;275;48.492;9.214;2024-01-30T05:59:00;6.70;26.80
578;DHT22;275;48.492;9.214;2024-01-30T06:01:26;6.70;26.90
578;DHT22;275;48.492;9.214;2024-01-30T06:03:54;6.60;26.70
578;DHT22;275;48.492;9.214;2024-01-30T06:06:23;6.50;27.20
578;DHT22;275;48.492;9.214;2024-01-30T06:08:50;6.70;26.70
578;DHT22;275;48.492;9.214;2024-01-30T06:11:16;6.60;27.00
578;DHT22;275;48.492;9.214;2024-01-30T06:13:43;6.50;27.20
578;DHT22;275;48.492;9.214;2024-01-30T06:16:10;6.60;27.20
578;DHT22;275;48.492;9.214;2024-01-30T06:18:37;6.60;26.80
578;DHT22;275;48.492;9.214;2024-01-30T06:21:05;6.60;26.80
578;DHT22;275;48.492;9.214;2024-01-30T06:23:33;6.40;27.30
578;DHT22;275;48.492;9.214;2024-01-30T06:26:00;6.50;27.00
578;DHT22;275;48.492;9.214;2024-01-30T06:28:27;6.60;26.90
578;DHT22;275;48.492;9.214;2024-01-30T06:30:53;6.50;26.70
578;DHT22;275;48.492;9.214;2024-01-30T06:33:20;6.10;27.00
578;DHT22;275;48.492;9.214;2024-01-30T06:35:47;5.90;27.50
578;DHT22;275;48.492;9.214;2024-01-30T06:38:14;5.50;28.30
578;DHT22;275;48.492;9.214;2024-01-30T06:40:42;5.60;28.30
578;DHT22;275;48.492;9.214;2024-01-30T06:43:09;5.70;28.10
578;DHT22;275;48.492;9.214;2024-01-30T06:45:36;5.60;28.00
578;DHT22;275;48.492;9.214;2024-01-30T06:48:04;5.40;28.10
578;DHT22;275;48.492;9.214;2024-01-30T06:50:31;5.30;28.70
578;DHT22;275;48.492;9.214;2024-01-30T06:52:58;5.10;29.00
578;DHT22;275;48.492;9.214;2024-01-30T06:55:24;5.10;29.20
578;DHT22;275;48.492;9.214;2024-01-30T06:57:53;5.20;29.20
578;DHT22;275;48.492;9.214;2024-01-30T07:00:20;5.20;29.40
578;DHT22;275;48.492;9.214;2024-01-30T07:02:48;5.50;29.00
578;DHT22;275;48.492;9.214;2024-01-30T07:05:14;5.60;29.50
578;DHT22;275;48.492;9.214;2024-01-30T07:07:43;5.80;29.20
578;DHT22;275;48.492;9.214;2024-01-30T07:10:09;5.70;29.00
578;DHT22;275;48.492;9.214;2024-01-30T07:12:36;5.80;28.80
578;DHT22;275;48.492;9.214;2024-01-30T07:15:05;5.60;29.10
578;DHT22;275;48.492;9.214;2024-01-30T07:17:33;5.90;28.10
578;DHT22;275;48.492;9.214;2024-01-30T07:20:00;6.10;27.30
578;DHT22;275;48.492;9.214;2024-01-30T07:22:28;6.50;26.50
578;DHT22;275;48.492;9.214;2024-01-30T07:24:55;6.50;26.20
578;DHT22;275;48.492;9.214;2024-01-30T07:27:23;6.60;25.80
578;DHT22;275;48.492;9.214;2024-01-30T07:29:50;6.80;25.40
578;DHT22;275;48.492;9.214;2024-01-30T07:32:18;6.90;25.30
578;DHT22;275;48.492;9.214;2024-01-30T07:34:45;7.00;25.50
578;DHT22;275;48.492;9.214;2024-01-30T07:37:12;7.10;25.40
578;DHT22;275;48.492;9.214;2024-01-30T07:39:41;7.20;25.50
578;DHT22;275;48.492;9.214;2024-01-30T07:42:08;7.30;24.90
578;DHT22;275;48.492;9.214;2024-01-30T07:44:35;7.20;25.30
578;DHT22;275;48.492;9.214;2024-01-30T07:47:02;7.40;25.40
578;DHT22;275;48.492;9.214;2024-01-30T07:49:30;7.40;24.90
578;DHT22;275;48.492;9.214;2024-01-30T07:52:00;7.50;25.10
578;DHT22;275;48.492;9.214;2024-01-30T07:54:30;7.50;25.10
578;DHT22;275;48.492;9.214;2024-01-30T07:56:59;7.70;24.90
578;DHT22;275;48.492;9.214;2024-01-30T07:59:25;7.80;24.90
578;DHT22;275;48.492;9.214;2024-01-30T08:01:52;8.10;24.50
578;DHT22;275;48.492;9.214;2024-01-30T08:04:19;8.10;24.50
578;DHT22;275;48.492;9.214;2024-01-30T08:06:47;8.10;24.60
578;DHT22;275;48.492;9.214;2024-01-30T08:09:14;8.10;24.50
578;DHT22;275;48.492;9.214;2024-01-30T08:11:41;8.30;24.40
578;DHT22;275;48.492;9.214;2024-01-30T08:14:08;8.30;24.40
578;DHT22;275;48.492;9.214;2024-01-30T08:16:34;8.50;24.10
578;DHT22;275;48.492;9.214;2024-01-30T08:19:01;8.30;24.30
578;DHT22;275;48.492;9.214;2024-01-30T08:21:28;8.40;24.00
578;DHT22;275;48.492;9.214;2024-01-30T08:23:56;8.50;23.80
578;DHT22;275;48.492;9.214;2024-01-30T08:26:23;8.60;23.40
578;DHT22;275;48.492;9.214;2024-01-30T08:28:50;8.70;23.40
578;DHT22;275;48.492;9.214;2024-01-30T08:31:19;8.70;23.40
578;DHT22;275;48.492;9.214;2024-01-30T08:33:45;8.70;23.40
578;DHT22;275;48.492;9.214;2024-01-30T08:36:13;8.70;23.50
578;DHT22;275;48.492;9.214;2024-01-30T08:38:39;8.90;23.30
578;DHT22;275;48.492;9.214;2024-01-30T08:41:08;9.10;22.90
578;DHT22;275;48.492;9.214;2024-01-30T08:43:35;8.70;23.50
578;DHT22;275;48.492;9.214;2024-01-30T08:46:02;8.20;24.30
578;DHT22;275;48.492;9.214;2024-01-30T08:48:29;8.40;24.10
578;DHT22;275;48.492;9.214;2024-01-30T08:50:56;8.50;23.80
578;DHT22;275;48.492;9.214;2024-01-30T08:53:23;8.80;23.50
578;DHT22;275;48.492;9.214;2024-01-30T08:55:50;9.00;23.10
578;DHT22;275;48.492;9.214;2024-01-30T08:58:18;9.30;22.60
578;DHT22;275;48.492;9.214;2024-01-30T09:00:45;9.60;22.20
578;DHT22;275;48.492;9.214;2024-01-30T09:03:12;9.20;22.70
578;DHT22;275;48.492;9.214;2024-01-30T09:05:39;9.40;22.80
578;DHT22;275;48.492;9.214;2024-01-30T09:08:06;9.40;23.00
578;DHT22;275;48.492;9.214;2024-01-30T09:10:32;9.60;22.70
578;DHT22;275;48.492;9.214;2024-01-30T09:12:59;9.60;22.80
578;DHT22;275;48.492;9.214;2024-01-30T09:15:27;9.70;22.80
578;DHT22;275;48.492;9.214;2024-01-30T09:17:54;10.10;21.50
578;DHT22;275;48.492;9.214;2024-01-30T09:20:21;10.10;21.50
578;DHT22;275;48.492;9.214;2024-01-30T09:22:48;10.40;21.30
578;DHT22;275;48.492;9.214;2024-01-30T09:25:15;10.40;20.80
578;DHT22;275;48.492;9.214;2024-01-30T09:27:44;10.00;21.50
578;DHT22;275;48.492;9.214;2024-01-30T09:30:11;10.50;20.50
578;DHT22;275;48.492;9.214;2024-01-30T09:32:41;10.60;20.10
578;DHT22;275;48.492;9.214;2024-01-30T09:35:09;10.70;19.80
578;DHT22;275;48.492;9.214;2024-01-30T09:37:35;10.90;19.50
578;DHT22;275;48.492;9.214;2024-01-30T09:40:03;10.70;19.90
578;DHT22;275;48.492;9.214;2024-01-30T09:42:34;10.90;19.50
578;DHT22;275;48.492;9.214;2024-01-30T09:45:01;11.00;19.40
578;DHT22;275;48.492;9.214;2024-01-30T09:47:31;11.00;19.50
578;DHT22;275;48.492;9.214;2024-01-30T09:50:01;11.20;19.50
578;DHT22;275;48.492;9.214;2024-01-30T09:52:29;11.50;19.00
578;DHT22;275;48.492;9.214;2024-01-30T09:54:56;11.60;19.00
578;DHT22;275;48.492;9.214;2024-01-30T09:57:26;11.70;18.50
578;DHT22;275;48.492;9.214;2024-01-30T09:59:53;11.80;19.00
578;DHT22;275;48.492;9.214;2024-01-30T10:02:20;11.50;19.00
578;DHT22;275;48.492;9.214;2024-01-30T10:04:48;11.60;18.70
578;DHT22;275;48.492;9.214;2024-01-30T10:07:17;12.00;18.70
578;DHT22;275;48.492;9.214;2024-01-30T10:09:44;12.30;18.40
578;DHT22;275;48.492;9.214;2024-01-30T10:12:11;12.40;18.10
578;DHT22;275;48.492;9.214;2024-01-30T10:14:39;12.40;18.10
578;DHT22;275;48.492;9.214;2024-01-30T10:17:08;12.10;18.50
578;DHT22;275;48.492;9.214;2024-01-30T10:19:35;12.40;18.70
578;DHT22;275;48.492;9.214;2024-01-30T10:22:02;12.80;18.10
578;DHT22;275;48.492;9.214;2024-01-30T10:24:31;12.90;18.20
578;DHT22;275;48.492;9.214;2024-01-30T10:26:59;12.60;18.80
578;DHT22;275;48.492;9.214;2024-01-30T10:29:27;13.00;18.40
578;DHT22;275;48.492;9.214;2024-01-30T10:32:00;12.90;18.30
578;DHT22;275;48.492;9.214;2024-01-30T10:34:27;13.10;18.10
578;DHT22;275;48.492;9.214;2024-01-30T10:37:00;13.50;17.70
578;DHT22;275;48.492;9.214;2024-01-30T10:39:37;13.50;17.90
578;DHT22;275;48.492;9.214;2024-01-30T10:42:05;13.80;17.60
578;DHT22;275;48.492;9.214;2024-01-30T10:44:37;13.80;17.50
578;DHT22;275;48.492;9.214;2024-01-30T10:47:07;14.20;17.00
578;DHT22;275;48.492;9.214;2024-01-30T10:49:37;14.30;16.80
578;DHT22;275;48.492;9.214;2024-01-30T10:52:05;14.30;17.00
578;DHT22;275;48.492;9.214;2024-01-30T10:54:34;14.20;17.30
578;DHT22;275;48.492;9.214;2024-01-30T10:57:01;14.40;17.00
578;DHT22;275;48.492;9.214;2024-01-30T10:59:30;14.50;17.00
578;DHT22;275;48.492;9.214;2024-01-30T11:01:58;14.50;16.70
578;DHT22;275;48.492;9.214;2024-01-30T11:04:25;14.40;16.90
578;DHT22;275;48.492;9.214;2024-01-30T11:06:52;14.50;16.90
578;DHT22;275;48.492;9.214;2024-01-30T11:09:19;14.40;16.80
578;DHT22;275;48.492;9.214;2024-01-30T11:11:51;14.40;17.00
578;DHT22;275;48.492;9.214;2024-01-30T11:14:30;14.40;16.80
578;DHT22;275;48.492;9.214;2024-01-30T11:16:57;14.50;16.80
578;DHT22;275;48.492;9.214;2024-01-30T11:19:25;14.80;16.60
578;DHT22;275;48.492;9.214;2024-01-30T11:21:52;15.00;16.40
578;DHT22;275;48.492;9.214;2024-01-30T11:24:20;15.30;16.00
578;DHT22;275;48.492;9.214;2024-01-30T11:26:48;15.60;15.30
578;DHT22;275;48.492;9.214;2024-01-30T11:29:17;15.40;15.80
578;DHT22;275;48.492;9.214;2024-01-30T11:31:54;15.80;15.40
578;DHT22;275;48.492;9.214;2024-01-30T11:34:21;15.80;15.60
578;DHT22;275;48.492;9.214;2024-01-30T11:36:51;15.60;15.80
578;DHT22;275;48.492;9.214;2024-01-30T11:39:20;15.60;15.40
578;DHT22;275;48.492;9.214;2024-01-30T11:41:50;15.50;15.20
578;DHT22;275;48.492;9.214;2024-01-30T11:44:19;15.60;15.10
578;DHT22;275;48.492;9.214;2024-01-30T11:46:47;15.70;14.60
578;DHT22;275;48.492;9.214;2024-01-30T11:49:15;15.80;14.50
578;DHT22;275;48.492;9.214;2024-01-30T11:51:42;16.00;13.90
578;DHT22;275;48.492;9.214;2024-01-30T11:54:09;16.20;13.90
578;DHT22;275;48.492;9.214;2024-01-30T11:56:37;16.20;14.70
578;DHT22;275;48.492;9.214;2024-01-30T11:59:04;16.20;14.70
578;DHT22;275;48.492;9.214;2024-01-30T12:01:32;16.10;13.90
578;DHT22;275;48.492;9.214;2024-01-30T12:03:59;16.60;12.60
578;DHT22;275;48.492;9.214;2024-01-30T12:06:26;16.70;12.50
578;DHT22;275;48.492;9.214;2024-01-30T12:08:57;16.60;12.50
578;DHT22;275;48.492;9.214;2024-01-30T12:11:25;16.40;12.60
578;DHT22;275;48.492;9.214;2024-01-30T12:13:53;16.50;12.90
578;DHT22;275;48.492;9.214;2024-01-30T12:16:20;16.60;12.60
578;DHT22;275;48.492;9.214;2024-01-30T12:18:48;16.70;12.10
578;DHT22;275;48.492;9.214;2024-01-30T12:21:16;17.00;11.80
578;DHT22;275;48.492;9.214;2024-01-30T12:23:43;17.10;11.30
578;DHT22;275;48.492;9.214;2024-01-30T12:26:11;17.20;11.50
578;DHT22;275;48.492;9.214;2024-01-30T12:28:47;17.20;11.20
578;DHT22;275;48.492;9.214;2024-01-30T12:31:14;17.20;10.70
578;DHT22;275;48.492;9.214;2024-01-30T12:33:41;17.20;11.00
578;DHT22;275;48.492;9.214;2024-01-30T12:36:09;17.30;10.70
578;DHT22;275;48.492;9.214;2024-01-30T12:38:37;17.30;10.60
578;DHT22;275;48.492;9.214;2024-01-30T12:41:07;17.30;10.30
578;DHT22;275;48.492;9.214;2024-01-30T12:43:34;17.50;10.50
578;DHT22;275;48.492;9.214;2024-01-30T12:46:01;17.50;10.40
578;DHT22;275;48.492;9.214;2024-01-30T12:48:28;17.30;10.60
578;DHT22;275;48.492;9.214;2024-01-30T12:50:55;17.00;11.00
578;DHT22;275;48.492;9.214;2024-01-30T12:53:24;17.30;10.80
578;DHT22;275;48.492;9.214;2024-01-30T12:55:50;18.00;10.20
578;DHT22;275;48.492;9.214;2024-01-30T12:58:18;19.00;9.50
578;DHT22;275;48.492;9.214;2024-01-30T13:00:45;19.60;9.20
578;DHT22;275;48.492;9.214;2024-01-30T13:03:12;20.10;8.40
578;DHT22;275;48.492;9.214;2024-01-30T13:05:39;20.70;7.60
578;DHT22;275;48.492;9.214;2024-01-30T13:08:06;20.60;7.80
578;DHT22;275;48.492;9.214;2024-01-30T13:10:34;20.30;7.80
578;DHT22;275;48.492;9.214;2024-01-30T13:13:01;20.10;8.10
578;DHT22;275;48.492;9.214;2024-01-30T13:15:28;20.10;7.70
578;DHT22;275;48.492;9.214;2024-01-30T13:17:55;19.70;8.20
578;DHT22;275;48.492;9.214;2024-01-30T13:20:21;19.60;8.10
578;DHT22;275;48.492;9.214;2024-01-30T13:22:48;18.70;9.10
578;DHT22;275;48.492;9.214;2024-01-30T13:25:16;18.90;9.20
578;DHT22;275;48.492;9.214;2024-01-30T13:27:44;19.00;9.00
578;DHT22;275;48.492;9.214;2024-01-30T13:30:11;19.20;9.00
578;DHT22;275;48.492;9.214;2024-01-30T13:32:38;19.20;9.10
578;DHT22;275;48.492;9.214;2024-01-30T13:35:06;19.40;8.90
578;DHT22;275;48.492;9.214;2024-01-30T13:37:33;19.40;9.20
578;DHT22;275;48.492;9.214;2024-01-30T13:40:00;19.40;9.30
578;DHT22;275;48.492;9.214;2024-01-30T13:42:27;19.50;9.30
578;DHT22;275;48.492;9.214;2024-01-30T13:44:55;19.70;9.00
578;DHT22;275;48.492;9.214;2024-01-30T13:47:22;19.60;9.20
578;DHT22;275;48.492;9.214;2024-01-30T13:49:49;19.40;9.20
578;DHT22;275;48.492;9.214;2024-01-30T13:52:15;19.00;9.80
578;DHT22;275;48.492;9.214;2024-01-30T13:54:42;19.00;10.10
578;DHT22;275;48.492;9.214;2024-01-30T13:57:09;19.00;10.10
578;DHT22;275;48.492;9.214;2024-01-30T13:59:37;19.10;9.90
578;DHT22;275;48.492;9.214;2024-01-30T14:02:06;19.00;10.00
578;DHT22;275;48.492;9.214;2024-01-30T14:04:33;19.10;9.60
578;DHT22;275;48.492;9.214;2024-01-30T14:07:02;19.40;9.60
578;DHT22;275;48.492;9.214;2024-01-30T14:09:29;19.70;9.30
578;DHT22;275;48.492;9.214;2024-01-30T14:11:57;20.10;9.20
578;DHT22;275;48.492;9.214;2024-01-30T14:14:24;20.00;9.10
578;DHT22;275;48.492;9.214;2024-01-30T14:16:51;19.80;9.10
578;DHT22;275;48.492;9.214;2024-01-30T14:19:19;19.60;9.40
578;DHT22;275;48.492;9.214;2024-01-30T14:21:46;19.60;9.00
578;DHT22;275;48.492;9.214;2024-01-30T14:24:13;18.30;9.90
578;DHT22;275;48.492;9.214;2024-01-30T14:26:40;18.00;10.70
578;DHT22;275;48.492;9.214;2024-01-30T14:29:07;18.10;10.40
578;DHT22;275;48.492;9.214;2024-01-30T14:31:33;18.00;10.60
578;DHT22;275;48.492;9.214;2024-01-30T14:34:00;18.60;10.00
578;DHT22;275;48.492;9.214;2024-01-30T14:36:29;18.70;9.40
578;DHT22;275;48.492;9.214;2024-01-30T14:38:56;18.90;9.50
578;DHT22;275;48.492;9.214;2024-01-30T14:41:23;19.00;9.60
578;DHT22;275;48.492;9.214;2024-01-30T14:43:50;19.20;9.30
578;DHT22;275;48.492;9.214;2024-01-30T14:46:17;19.40;8.80
578;DHT22;275;48.492;9.214;2024-01-30T14:48:43;19.50;8.30
578;DHT22;275;48.492;9.214;2024-01-30T14:51:10;18.90;8.80
578;DHT22;275;48.492;9.214;2024-01-30T14:53:38;18.40;9.50
578;DHT22;275;48.492;9.214;2024-01-30T14:56:06;18.10;9.50
578;DHT22;275;48.492;9.214;2024-01-30T14:58:33;18.00;9.70
578;DHT22;275;48.492;9.214;2024-01-30T15:01:00;18.10;9.50
578;DHT22;275;48.492;9.214;2024-01-30T15:03:27;18.10;9.60
578;DHT22;275;48.492;9.214;2024-01-30T15:05:54;17.80;9.70
578;DHT22;275;48.492;9.214;2024-01-30T15:08:21;17.80;9.80
578;DHT22;275;48.492;9.214;2024-01-30T15:10:49;17.70;9.90
578;DHT22;275;48.492;9.214;2024-01-30T15:13:17;17.60;10.10
578;DHT22;275;48.492;9.214;2024-01-30T15:15:44;17.40;10.30
578;DHT22;275;48.492;9.214;2024-01-30T15:18:10;17.40;10.30
578;DHT22;275;48.492;9.214;2024-01-30T15:20:37;17.30;10.80
578;DHT22;275;48.492;9.214;2024-01-30T15:23:04;17.10;11.00
578;DHT22;275;48.492;9.214;2024-01-30T15:25:31;17.10;10.70
578;DHT22;275;48.492;9.214;2024-01-30T15:27:59;17.10;10.90
578;DHT22;275;48.492;9.214;2024-01-30T15:30:26;16.90;11.00
578;DHT22;275;48.492;9.214;2024-01-30T15:32:53;16.90;11.20
578;DHT22;275;48.492;9.214;2024-01-30T15:35:19;17.00;11.20
578;DHT22;275;48.492;9.214;2024-01-30T15:37:47;16.70;11.00
578;DHT22;275;48.492;9.214;2024-01-30T15:40:13;16.60;11.70
578;DHT22;275;48.492;9.214;2024-01-30T15:42:41;16.40;12.00
578;DHT22;275;48.492;9.214;2024-01-30T15:45:10;16.50;11.70
578;DHT22;275;48.492;9.214;2024-01-30T15:47:37;16.60;11.60
578;DHT22;275;48.492;9.214;2024-01-30T15:50:04;16.60;11.60
578;DHT22;275;48.492;9.214;2024-01-30T15:52:31;16.60;11.60
578;DHT22;275;48.492;9.214;2024-01-30T15:54:58;16.40;11.70
578;DHT22;275;48.492;9.214;2024-01-30T15:57:25;16.40;11.90
578;DHT22;275;48.492;9.214;2024-01-30T15:59:52;16.30;11.90
578;DHT22;275;48.492;9.214;2024-01-30T16:02:20;16.20;12.00
578;DHT22;275;48.492;9.214;2024-01-30T16:04:47;16.30;12.10
578;DHT22;275;48.492;9.214;2024-01-30T16:07:14;16.20;12.20
578;DHT22;275;48.492;9.214;2024-01-30T16:09:41;16.20;12.70
578;DHT22;275;48.492;9.214;2024-01-30T16:12:09;16.00;12.80
578;DHT22;275;48.492;9.214;2024-01-30T16:14:35;16.00;13.20
578;DHT22;275;48.492;9.214;2024-01-30T16:17:02;15.90;13.50
578;DHT22;275;48.492;9.214;2024-01-30T16:19:31;15.90;13.40
578;DHT22;275;48.492;9.214;2024-01-30T16:21:58;15.80;13.70
578;DHT22;275;48.492;9.214;2024-01-30T16:24:25;15.60;13.90
578;DHT22;275;48.492;9.214;2024-01-30T16:26:52;15.50;13.90
578;DHT22;275;48.492;9.214;2024-01-30T16:29:18;15.40;14.80
578;DHT22;275;48.492;9.214;2024-01-30T16:31:45;15.40;15.20
578;DHT22;275;48.492;9.214;2024-01-30T16:34:12;15.20;16.00
578;DHT22;275;48.492;9.214;2024-01-30T16:36:40;15.20;16.00
578;DHT22;275;48.492;9.214;2024-01-30T16:39:09;14.80;16.80
578;DHT22;275;48.492;9.214;2024-01-30T16:41:36;14.70;17.20
578;DHT22;275;48.492;9.214;2024-01-30T16:44:04;14.70;17.30
578;DHT22;275;48.492;9.214;2024-01-30T16:46:31;14.60;17.60